createdAt,value
2022-12-13T00:01:16.591Z,94.71
2022-12-13T00:03:43.685Z,94.04
2022-12-13T00:06:11.963Z,94.60
2022-12-13T00:08:38.909Z,94.15
2022-12-13T00:11:07.658Z,93.90
2022-12-13T00:13:34.401Z,94.35
2022-12-13T00:16:03.978Z,94.00
2022-12-13T00:18:31.061Z,93.50
2022-12-13T00:20:58.693Z,92.98
2022-12-13T00:23:25.380Z,93.57
2022-12-13T00:25:51.915Z,93.95
2022-12-13T00:28:18.465Z,93.90
2022-12-13T00:30:45.686Z,94.16
2022-12-13T00:33:15.246Z,94.07
2022-12-13T00:35:42.210Z,93.34
2022-12-13T00:38:10.361Z,93.61
2022-12-13T00:40:36.938Z,93.64
2022-12-13T00:43:06.636Z,92.59
2022-12-13T00:45:33.766Z,92.75
2022-12-13T00:48:00.376Z,92.92
2022-12-13T00:50:27.061Z,92.79
2022-12-13T00:52:53.846Z,93.24
2022-12-13T00:55:20.329Z,93.10
2022-12-13T00:57:46.954Z,92.93
2022-12-13T01:00:13.632Z,92.92
2022-12-13T01:02:43.524Z,92.77
2022-12-13T01:05:11.356Z,92.85
2022-12-13T01:07:40.124Z,92.97
2022-12-13T01:10:07.910Z,93.85
2022-12-13T01:12:35.237Z,93.98
2022-12-13T01:15:02.073Z,94.14
2022-12-13T01:17:28.627Z,94.37
2022-12-13T01:19:55.247Z,94.27
2022-12-13T01:22:24.089Z,94.76
2022-12-13T01:24:50.932Z,94.99
2022-12-13T01:27:18.056Z,94.03
2022-12-13T01:29:44.678Z,94.89
2022-12-13T01:32:11.196Z,94.14
2022-12-13T01:34:37.799Z,94.60
2022-12-13T01:37:04.514Z,94.65
2022-12-13T01:39:31.210Z,94.13
2022-12-13T01:42:04.960Z,94.46
2022-12-13T01:44:56.208Z,94.05
2022-12-13T01:47:45.330Z,94.49
2022-12-13T01:50:22.358Z,94.51
2022-12-13T01:52:49.891Z,94.37
2022-12-13T01:55:22.392Z,94.19
2022-12-13T01:57:51.664Z,93.73
2022-12-13T02:00:18.803Z,93.91
2022-12-13T02:02:46.808Z,93.52
2022-12-13T02:05:36.439Z,93.54
2022-12-13T02:08:06.201Z,94.14
2022-12-13T02:10:32.993Z,94.12
2022-12-13T02:12:59.538Z,95.74
2022-12-13T02:15:31.330Z,96.52
2022-12-13T02:18:19.701Z,96.32
2022-12-13T02:20:55.210Z,94.60
2022-12-13T02:23:55.452Z,95.25
2022-12-13T02:26:34.251Z,94.88
2022-12-13T02:29:38.505Z,94.83
2022-12-13T02:32:10.800Z,94.60
2022-12-13T02:34:43.356Z,94.73
2022-12-13T02:37:17.945Z,95.72
2022-12-13T02:39:56.424Z,95.06
2022-12-13T02:42:34.919Z,95.45
2022-12-13T02:45:20.352Z,95.61
2022-12-13T02:47:49.735Z,94.45
2022-12-13T02:50:16.932Z,95.17
2022-12-13T02:52:46.536Z,94.89
2022-12-13T02:55:16.661Z,94.37
2022-12-13T02:57:45.185Z,94.03
2022-12-13T03:00:19.253Z,94.54
2022-12-13T03:02:46.661Z,93.84
2022-12-13T03:05:49.251Z,93.02
2022-12-13T03:08:44.619Z,93.34
2022-12-13T03:11:14.940Z,93.89
2022-12-13T03:14:13.654Z,93.51
2022-12-13T03:16:44.367Z,93.84
2022-12-13T03:19:13.637Z,93.22
2022-12-13T03:21:47.280Z,93.06
2022-12-13T03:24:17.279Z,92.96
2022-12-13T03:26:44.623Z,93.17
2022-12-13T03:29:11.251Z,93.01
2022-12-13T03:31:37.884Z,92.82
2022-12-13T03:34:04.447Z,92.70
2022-12-13T03:36:34.307Z,92.99
2022-12-13T03:39:00.951Z,92.71
2022-12-13T03:41:35.757Z,92.34
2022-12-13T03:44:07.634Z,91.74
2022-12-13T03:46:34.809Z,92.31
2022-12-13T03:49:01.750Z,91.86
2022-12-13T03:51:28.351Z,91.48
2022-12-13T03:53:54.945Z,91.96
2022-12-13T03:56:21.729Z,91.75
2022-12-13T03:58:48.276Z,92.26
2022-12-13T04:01:17.063Z,91.88
2022-12-13T04:03:46.417Z,92.33
2022-12-13T04:06:22.857Z,93.44
2022-12-13T04:08:51.676Z,94.22
2022-12-13T04:11:43.260Z,94.63
2022-12-13T04:14:11.424Z,93.46
2022-12-13T04:16:38.060Z,93.74
2022-12-13T04:19:04.769Z,94.36
2022-12-13T04:21:31.377Z,94.24
2022-12-13T04:24:00.964Z,94.00
2022-12-13T04:26:29.617Z,93.52
2022-12-13T04:28:56.400Z,93.53
2022-12-13T04:31:23.397Z,92.90
2022-12-13T04:33:50.901Z,92.25
2022-12-13T04:36:31.952Z,92.12
2022-12-13T04:39:22.256Z,91.48
2022-12-13T04:41:53.208Z,92.08
2022-12-13T04:44:27.903Z,92.14
2022-12-13T04:47:22.698Z,91.55
2022-12-13T04:49:49.366Z,91.62
2022-12-13T04:52:22.160Z,91.55
2022-12-13T04:54:55.783Z,91.53
2022-12-13T04:57:22.974Z,91.32
2022-12-13T04:59:49.797Z,92.10
2022-12-13T05:02:23.921Z,92.26
2022-12-13T05:04:53.875Z,92.58
2022-12-13T05:07:23.158Z,92.73
2022-12-13T05:09:49.858Z,92.15
2022-12-13T05:12:23.257Z,91.84
2022-12-13T05:14:51.573Z,91.75
2022-12-13T05:17:18.282Z,92.04
2022-12-13T05:19:45.098Z,92.30
2022-12-13T05:22:20.616Z,92.12
2022-12-13T05:24:55.739Z,91.98
2022-12-13T05:27:24.426Z,92.40
2022-12-13T05:30:02.402Z,92.17
2022-12-13T05:32:42.644Z,91.83
2022-12-13T05:35:22.628Z,91.77
2022-12-13T05:37:53.937Z,91.75
2022-12-13T05:40:26.196Z,91.27
2022-12-13T05:43:01.049Z,90.94
2022-12-13T05:45:29.665Z,91.80
2022-12-13T05:47:56.289Z,91.52
2022-12-13T05:50:23.395Z,91.45
2022-12-13T05:52:50.270Z,91.66
2022-12-13T05:55:19.946Z,91.00
2022-12-13T05:57:50.714Z,91.13
2022-12-13T06:00:29.191Z,90.58
2022-12-13T06:03:00.467Z,90.83
2022-12-13T06:05:31.611Z,90.40
2022-12-13T06:07:58.928Z,91.13
2022-12-13T06:10:34.255Z,91.53
2022-12-13T06:13:20.939Z,92.17
2022-12-13T06:15:49.522Z,92.07
2022-12-13T06:18:16.214Z,92.52
2022-12-13T06:20:42.761Z,92.32
2022-12-13T06:23:09.445Z,91.88
2022-12-13T06:25:36.941Z,92.29
2022-12-13T06:28:03.645Z,92.17
2022-12-13T06:30:31.170Z,91.85
2022-12-13T06:32:57.804Z,91.54
2022-12-13T06:35:27.982Z,91.87
2022-12-13T06:38:01.484Z,91.11
2022-12-13T06:40:31.884Z,90.82
2022-12-13T06:42:58.487Z,90.39
2022-12-13T06:45:25.406Z,90.38
2022-12-13T06:47:52.019Z,89.80
2022-12-13T06:50:18.719Z,90.66
2022-12-13T06:52:48.410Z,90.74
2022-12-13T06:55:15.396Z,90.85
2022-12-13T06:57:51.007Z,90.69
2022-12-13T07:00:22.458Z,90.58
2022-12-13T07:02:54.599Z,90.30
2022-12-13T07:05:21.969Z,90.08
2022-12-13T07:07:48.694Z,89.81
2022-12-13T07:10:21.904Z,89.78
2022-12-13T07:12:49.899Z,89.83
2022-12-13T07:15:16.580Z,89.56
2022-12-13T07:17:43.197Z,89.18
2022-12-13T07:20:10.280Z,89.82
2022-12-13T07:22:43.235Z,90.59
2022-12-13T07:25:26.954Z,90.67
2022-12-13T07:28:04.238Z,90.46
2022-12-13T07:30:33.619Z,90.14
2022-12-13T07:33:05.007Z,90.22
2022-12-13T07:35:37.234Z,90.91
2022-12-13T07:38:09.369Z,91.53
2022-12-13T07:40:38.370Z,91.14
2022-12-13T07:43:06.140Z,90.89
2022-12-13T07:45:33.363Z,91.09
2022-12-13T07:48:04.451Z,90.65
2022-12-13T07:50:37.316Z,90.34
2022-12-13T07:53:08.669Z,90.80
2022-12-13T07:55:36.737Z,91.39
2022-12-13T07:58:14.644Z,91.28
2022-12-13T08:00:46.411Z,90.58
2022-12-13T08:03:24.098Z,91.12
2022-12-13T08:06:06.745Z,92.51
2022-12-13T08:08:34.225Z,91.90
2022-12-13T08:11:05.755Z,91.52
2022-12-13T08:13:33.266Z,91.44
2022-12-13T08:16:01.831Z,92.42
2022-12-13T08:18:29.752Z,92.64
2022-12-13T08:21:10.445Z,92.19
2022-12-13T08:23:50.719Z,92.00
2022-12-13T08:26:17.468Z,92.01
2022-12-13T08:28:44.240Z,92.50
2022-12-13T08:31:12.623Z,92.26
2022-12-13T08:33:40.656Z,92.58
2022-12-13T08:36:17.803Z,92.16
2022-12-13T08:38:45.482Z,92.57
2022-12-13T08:41:13.139Z,92.14
2022-12-13T08:43:40.783Z,92.06
2022-12-13T08:46:07.496Z,91.69
2022-12-13T08:48:34.535Z,92.01
2022-12-13T08:51:35.914Z,91.89
2022-12-13T08:54:09.965Z,91.74
2022-12-13T08:56:38.280Z,91.94
2022-12-13T08:59:05.046Z,92.80
2022-12-13T09:01:32.843Z,93.25
2022-12-13T09:03:59.521Z,94.38
2022-12-13T09:06:26.205Z,93.83
2022-12-13T09:08:54.558Z,93.55
2022-12-13T09:11:36.533Z,93.36
2022-12-13T09:14:04.866Z,93.34
2022-12-13T09:16:35.692Z,93.72
2022-12-13T09:19:24.724Z,93.62
2022-12-13T09:21:51.482Z,93.35
2022-12-13T09:24:24.461Z,92.39
2022-12-13T09:26:57.329Z,92.79
2022-12-13T09:29:24.528Z,92.93
2022-12-13T09:31:53.428Z,92.54
2022-12-13T09:34:20.293Z,92.62
2022-12-13T09:36:47.075Z,93.17
2022-12-13T09:39:13.646Z,93.02
2022-12-13T09:41:51.028Z,93.06
2022-12-13T09:44:32.611Z,91.87
2022-12-13T09:47:03.460Z,91.68
2022-12-13T09:49:36.871Z,90.78
2022-12-13T09:52:10.585Z,90.95
2022-12-13T09:54:47.856Z,90.75
2022-12-13T09:57:32.777Z,91.70
2022-12-13T10:00:08.008Z,90.44
2022-12-13T10:02:46.854Z,91.03
2022-12-13T10:05:42.368Z,90.20
2022-12-13T10:08:16.725Z,90.16
2022-12-13T10:10:46.265Z,90.72
2022-12-13T10:13:15.775Z,91.27
2022-12-13T10:15:48.525Z,89.94
2022-12-13T10:18:34.107Z,90.04
2022-12-13T10:21:04.837Z,90.03
2022-12-13T10:23:42.594Z,90.59
2022-12-13T10:26:24.207Z,89.79
2022-12-13T10:29:02.868Z,92.29
2022-12-13T10:31:29.582Z,91.06
2022-12-13T10:34:04.765Z,89.48
2022-12-13T10:36:38.399Z,88.78
2022-12-13T10:39:40.438Z,90.39
2022-12-13T10:42:22.645Z,90.51
2022-12-13T10:45:22.979Z,89.39
2022-12-13T10:47:50.899Z,88.55
2022-12-13T10:50:29.278Z,88.01
2022-12-13T10:52:57.755Z,87.78
2022-12-13T10:55:33.623Z,90.33
2022-12-13T10:58:19.359Z,87.41
2022-12-13T11:00:49.111Z,86.49
2022-12-13T11:03:32.919Z,87.12
2022-12-13T11:06:26.918Z,87.66
2022-12-13T11:08:54.660Z,85.89
2022-12-13T11:11:30.192Z,85.53
2022-12-13T11:14:01.583Z,85.57
2022-12-13T11:16:33.940Z,84.95
2022-12-13T11:19:04.428Z,85.38
2022-12-13T11:21:37.443Z,86.10
2022-12-13T11:24:08.035Z,84.50
2022-12-13T11:26:39.170Z,83.84
2022-12-13T11:29:30.740Z,83.01
2022-12-13T11:32:15.658Z,82.99
2022-12-13T11:35:03.183Z,83.96
2022-12-13T11:37:45.322Z,82.52
2022-12-13T11:40:16.821Z,81.34
2022-12-13T11:42:50.011Z,81.63
2022-12-13T11:45:39.894Z,83.55
2022-12-13T11:48:09.627Z,83.68
2022-12-13T11:50:40.530Z,80.43
2022-12-13T11:53:23.269Z,80.63
2022-12-13T11:55:59.452Z,78.25
2022-12-13T11:59:01.103Z,77.18
2022-12-13T12:01:23.560Z,77.06
2022-12-13T12:03:53.964Z,77.34
2022-12-13T12:06:22.620Z,79.07
2022-12-13T12:09:07.337Z,79.94
2022-12-13T12:11:46.289Z,76.00
2022-12-13T12:14:22.152Z,76.82
2022-12-13T12:16:59.823Z,76.64
2022-12-13T12:19:38.131Z,80.58
2022-12-13T12:22:22.929Z,77.14
2022-12-13T12:25:07.824Z,76.82
2022-12-13T12:27:36.811Z,80.19
2022-12-13T12:30:12.377Z,75.05
2022-12-13T12:33:26.824Z,73.58
2022-12-13T12:36:13.951Z,73.14
2022-12-13T12:38:49.369Z,71.53
2022-12-13T12:41:39.330Z,75.44
2022-12-13T12:44:50.534Z,72.64
2022-12-13T12:47:57.812Z,74.40
2022-12-13T12:50:44.395Z,70.55
2022-12-13T12:53:26.873Z,72.42
2022-12-13T12:56:16.223Z,73.67
2022-12-13T12:59:19.950Z,68.90
2022-12-13T13:02:18.248Z,71.33
2022-12-13T13:04:50.086Z,71.70
2022-12-13T13:07:24.159Z,72.58
2022-12-13T13:09:55.136Z,71.76
2022-12-13T13:12:30.441Z,69.38
2022-12-13T13:14:58.642Z,71.39
2022-12-13T13:17:25.345Z,73.33
2022-12-13T13:20:23.443Z,72.76
2022-12-13T13:23:10.309Z,72.98
2022-12-13T13:25:54.370Z,73.17
2022-12-13T13:28:25.809Z,73.60
2022-12-13T13:31:19.174Z,74.18
2022-12-13T13:33:48.289Z,73.37
2022-12-13T13:36:40.518Z,74.12
2022-12-13T13:39:54.425Z,76.03
2022-12-13T13:42:25.648Z,75.71
2022-12-13T13:44:52.422Z,74.35
2022-12-13T13:47:25.001Z,73.68
2022-12-13T13:50:12.988Z,73.58
2022-12-13T13:53:01.889Z,73.74
2022-12-13T13:55:43.620Z,75.27
2022-12-13T13:58:37.083Z,75.14
2022-12-13T14:01:35.912Z,72.95
2022-12-13T14:04:28.063Z,74.61
2022-12-13T14:07:27.334Z,75.59
2022-12-13T14:10:05.587Z,75.52
2022-12-13T14:13:06.790Z,75.42
2022-12-13T14:16:12.299Z,76.42
2022-12-13T14:19:29.390Z,76.99
2022-12-13T14:22:14.522Z,77.26
2022-12-13T14:25:09.931Z,77.80
2022-12-13T14:27:48.573Z,78.62
2022-12-13T14:30:27.818Z,78.58
2022-12-13T14:32:56.888Z,77.88
2022-12-13T14:35:26.923Z,78.33
2022-12-13T14:37:57.895Z,78.12
2022-12-13T14:40:33.816Z,79.25
2022-12-13T14:43:03.030Z,79.32
2022-12-13T14:45:39.683Z,79.30
2022-12-13T14:48:15.384Z,78.71
2022-12-13T14:50:44.572Z,78.61
2022-12-13T14:53:43.237Z,78.57
2022-12-13T14:56:28.034Z,79.39
2022-12-13T14:59:13.991Z,78.80
2022-12-13T15:01:41.349Z,78.63
2022-12-13T15:04:30.298Z,78.75
2022-12-13T15:07:14.328Z,79.19
2022-12-13T15:09:44.190Z,80.13
2022-12-13T15:12:25.322Z,81.06
2022-12-13T15:15:01.416Z,80.65
2022-12-13T15:17:39.591Z,81.15
2022-12-13T15:20:30.569Z,81.60
2022-12-13T15:23:11.993Z,80.96
2022-12-13T15:25:41.797Z,81.03
2022-12-13T15:28:18.253Z,81.43
2022-12-13T15:30:48.734Z,81.87
2022-12-13T15:33:18.218Z,81.48
2022-12-13T15:35:47.959Z,81.52
2022-12-13T15:38:28.118Z,81.62
2022-12-13T15:40:56.240Z,81.43
2022-12-13T15:43:32.361Z,82.10
2022-12-13T15:45:59.855Z,82.40
2022-12-13T15:48:37.859Z,84.01
2022-12-13T15:51:13.435Z,83.96
2022-12-13T15:54:11.172Z,83.77
2022-12-13T15:57:02.004Z,83.52
2022-12-13T15:59:30.105Z,84.21
2022-12-13T16:01:58.711Z,84.32
2022-12-13T16:04:31.087Z,84.07
2022-12-13T16:06:57.868Z,83.86
2022-12-13T16:09:27.713Z,84.12
2022-12-13T16:12:03.520Z,84.50
2022-12-13T16:14:30.567Z,85.56
2022-12-13T16:17:25.239Z,85.47
2022-12-13T16:19:53.561Z,85.04
2022-12-13T16:22:23.557Z,84.46
2022-12-13T16:24:51.844Z,84.61
2022-12-13T16:27:19.744Z,84.95
2022-12-13T16:29:46.514Z,85.48
2022-12-13T16:32:13.230Z,85.85
2022-12-13T16:34:40.042Z,85.50
2022-12-13T16:37:08.666Z,85.52
2022-12-13T16:39:52.836Z,85.68
2022-12-13T16:42:19.534Z,85.22
2022-12-13T16:44:48.659Z,85.25
2022-12-13T16:47:24.425Z,85.17
2022-12-13T16:50:08.360Z,86.16
2022-12-13T16:52:43.180Z,86.64
2022-12-13T16:55:13.387Z,86.59
2022-12-13T16:57:40.027Z,86.22
2022-12-13T17:00:09.958Z,86.26
2022-12-13T17:02:37.515Z,85.96
2022-12-13T17:05:05.838Z,86.73
2022-12-13T17:07:33.405Z,86.89
2022-12-13T17:10:00.177Z,86.22
2022-12-13T17:12:26.782Z,86.57
2022-12-13T17:14:54.411Z,85.76
2022-12-13T17:17:45.490Z,86.16
2022-12-13T17:20:15.586Z,86.71
2022-12-13T17:22:43.504Z,86.44
2022-12-13T17:25:10.871Z,86.98
2022-12-13T17:27:38.141Z,87.33
2022-12-13T17:30:08.375Z,87.11
2022-12-13T17:32:36.285Z,87.74
2022-12-13T17:35:04.205Z,87.33
2022-12-13T17:37:32.142Z,87.80
2022-12-13T17:39:58.937Z,86.97
2022-12-13T17:42:26.036Z,87.25
2022-12-13T17:44:53.653Z,87.63
2022-12-13T17:47:20.902Z,87.07
2022-12-13T17:49:47.487Z,87.34
2022-12-13T17:52:14.035Z,86.98
2022-12-13T17:54:40.743Z,86.89
2022-12-13T17:57:10.252Z,86.36
2022-12-13T17:59:42.917Z,86.25
2022-12-13T18:02:22.619Z,86.25
2022-12-13T18:04:50.148Z,86.44
2022-12-13T18:07:17.976Z,85.63
2022-12-13T18:09:45.053Z,84.81
2022-12-13T18:12:12.623Z,84.73
2022-12-13T18:14:42.236Z,84.70
2022-12-13T18:17:08.661Z,84.63
2022-12-13T18:19:35.228Z,83.75
2022-12-13T18:22:01.738Z,83.11
2022-12-13T18:24:28.247Z,83.23
2022-12-13T18:26:55.144Z,83.02
2022-12-13T18:29:21.672Z,82.71
2022-12-13T18:31:48.221Z,82.35
2022-12-13T18:34:14.737Z,82.45
2022-12-13T18:36:41.363Z,82.41
2022-12-13T18:39:08.037Z,82.85
2022-12-13T18:41:34.730Z,82.15
2022-12-13T18:44:04.626Z,81.78
2022-12-13T18:46:35.001Z,82.64
2022-12-13T18:49:02.240Z,82.05
2022-12-13T18:51:28.841Z,81.50
2022-12-13T18:53:56.252Z,81.89
2022-12-13T18:56:23.715Z,81.48
2022-12-13T18:58:50.975Z,81.62
2022-12-13T19:01:19.157Z,81.09
2022-12-13T19:03:47.445Z,81.20
2022-12-13T19:06:26.402Z,82.97
2022-12-13T19:08:56.299Z,82.00
2022-12-13T19:11:24.491Z,82.27
2022-12-13T19:13:51.282Z,82.50
2022-12-13T19:16:20.492Z,82.01
2022-12-13T19:18:48.306Z,82.01
2022-12-13T19:21:18.519Z,82.13
2022-12-13T19:23:49.500Z,82.26
2022-12-13T19:26:21.462Z,81.74
2022-12-13T19:28:48.231Z,81.55
2022-12-13T19:31:15.728Z,80.90
2022-12-13T19:33:42.976Z,81.16
2022-12-13T19:36:12.671Z,81.75
2022-12-13T19:38:41.804Z,81.48
2022-12-13T19:41:14.593Z,82.47
2022-12-13T19:43:42.131Z,82.10
2022-12-13T19:46:09.699Z,81.36
2022-12-13T19:48:40.317Z,81.28
2022-12-13T19:51:08.630Z,81.16
2022-12-13T19:53:39.097Z,80.65
2022-12-13T19:56:24.451Z,80.88
2022-12-13T19:58:51.403Z,81.11
2022-12-13T20:01:18.812Z,81.44
2022-12-13T20:03:47.104Z,80.77
2022-12-13T20:06:20.458Z,79.84
2022-12-13T20:08:47.296Z,79.81
2022-12-13T20:11:19.307Z,80.87
2022-12-13T20:13:47.100Z,81.02
2022-12-13T20:16:19.173Z,80.13
2022-12-13T20:18:46.909Z,79.79
2022-12-13T20:21:14.864Z,79.72
2022-12-13T20:23:49.439Z,79.71
2022-12-13T20:26:21.079Z,80.25
2022-12-13T20:28:51.245Z,81.23
2022-12-13T20:31:20.861Z,80.63
2022-12-13T20:33:58.686Z,80.36
2022-12-13T20:36:27.904Z,80.66
2022-12-13T20:39:02.303Z,79.69
2022-12-13T20:41:31.853Z,79.79
2022-12-13T20:43:59.846Z,80.03
2022-12-13T20:46:28.179Z,80.17
2022-12-13T20:48:56.201Z,80.30
2022-12-13T20:51:25.514Z,80.03
2022-12-13T20:53:53.170Z,80.13
2022-12-13T20:56:22.972Z,80.10
2022-12-13T20:58:50.437Z,80.14
2022-12-13T21:01:20.032Z,80.18
2022-12-13T21:03:47.006Z,80.47
2022-12-13T21:06:13.900Z,79.48
2022-12-13T21:08:53.984Z,79.87
2022-12-13T21:11:26.560Z,80.26
2022-12-13T21:14:06.920Z,79.78
2022-12-13T21:16:46.926Z,80.00
2022-12-13T21:19:19.350Z,79.48
2022-12-13T21:21:47.196Z,79.57
2022-12-13T21:24:15.858Z,79.80
2022-12-13T21:26:42.784Z,79.33
2022-12-13T21:29:13.431Z,79.98
2022-12-13T21:31:44.416Z,79.30
2022-12-13T21:34:16.514Z,80.67
2022-12-13T21:36:45.698Z,80.49
2022-12-13T21:39:18.518Z,80.26
2022-12-13T21:41:45.649Z,80.32
2022-12-13T21:44:15.040Z,80.36
2022-12-13T21:49:28.956Z,80.11
2022-12-13T21:51:55.821Z,79.60
2022-12-13T21:54:22.783Z,79.41
2022-12-13T21:57:08.278Z,79.75
2022-12-13T21:59:34.993Z,78.59
2022-12-13T22:02:18.222Z,77.22
2022-12-13T22:04:49.153Z,77.41
2022-12-13T22:07:27.592Z,77.94
2022-12-13T22:09:55.424Z,78.68
2022-12-13T22:12:35.681Z,78.30
2022-12-13T22:15:04.703Z,77.50
2022-12-13T22:17:35.653Z,77.37
2022-12-13T22:20:06.052Z,77.60
2022-12-13T22:22:32.652Z,77.85
2022-12-13T22:24:59.398Z,78.40
2022-12-13T22:27:26.286Z,77.97
2022-12-13T22:29:57.640Z,77.26
2022-12-13T22:32:30.082Z,76.56
2022-12-13T22:34:57.413Z,77.13
2022-12-13T22:37:24.830Z,75.83
2022-12-13T22:39:51.719Z,76.11
2022-12-13T22:42:21.875Z,76.47
2022-12-13T22:44:48.784Z,76.42
2022-12-13T22:47:15.717Z,76.68
2022-12-13T22:49:42.291Z,77.12
2022-12-13T22:52:08.857Z,77.67
2022-12-13T22:54:35.846Z,77.14
2022-12-13T22:57:02.767Z,76.55
2022-12-13T22:59:29.447Z,77.99
2022-12-13T23:02:02.054Z,77.71
2022-12-13T23:04:29.202Z,76.40
2022-12-13T23:06:56.524Z,77.02
2022-12-13T23:09:23.231Z,76.84
2022-12-13T23:12:08.610Z,76.69
2022-12-13T23:14:36.470Z,76.84
2022-12-13T23:17:04.376Z,76.30
2022-12-13T23:19:41.612Z,77.42
2022-12-13T23:22:18.155Z,77.60
2022-12-13T23:24:44.732Z,78.54
2022-12-13T23:27:11.328Z,77.77
2022-12-13T23:29:38.167Z,77.49
2022-12-13T23:32:04.844Z,77.17
2022-12-13T23:34:31.504Z,77.05
2022-12-13T23:36:58.372Z,77.33
2022-12-13T23:39:24.981Z,77.71
2022-12-13T23:41:51.539Z,76.96
2022-12-13T23:44:19.018Z,76.06
2022-12-13T23:46:48.145Z,77.40
2022-12-13T23:49:15.500Z,76.80
2022-12-13T23:51:42.181Z,76.58
2022-12-13T23:54:09.787Z,76.53
2022-12-13T23:56:36.361Z,76.70
2022-12-13T23:59:02.935Z,75.87
